sensor_id;sensor_type;location;lat;lon;timestamp;pressure;altitude;pressure_sealevel;temperature;humidity
59789;BME280;47353;51.614;5.530;2022-11-25T00:01:12;100856.78;;;8.03;100.00
59789;BME280;47353;51.614;5.530;2022-11-25T00:03:38;100852.66;;;8.06;100.00
59789;BME280;47353;51.614;5.530;2022-11-25T00:06:24;100846.47;;;8.20;100.00
59789;BME280;47353;51.614;5.530;2022-11-25T00:08:53;100845.28;;;8.11;100.00
59789;BME280;47353;51.614;5.530;2022-11-25T00:11:18;100848.94;;;8.17;100.00
59789;BME280;47353;51.614;5.530;2022-11-25T00:13:45;100857.97;;;8.12;100.00
59789;BME280;47353;51.614;5.530;2022-11-25T00:16:13;100839.81;;;8.16;100.00
59789;BME280;47353;51.614;5.530;2022-11-25T00:18:39;100844.47;;;8.16;100.00
59789;BME280;47353;51.614;5.530;2022-11-25T00:21:13;100832.13;;;8.18;100.00
59789;BME280;47353;51.614;5.530;2022-11-25T00:23:39;100857.19;;;8.17;100.00
59789;BME280;47353;51.614;5.530;2022-11-25T00:26:24;100836.03;;;8.22;100.00
59789;BME280;47353;51.614;5.530;2022-11-25T00:28:50;100829.44;;;8.23;100.00
59789;BME280;47353;51.614;5.530;2022-11-25T00:31:22;100833.91;;;8.29;100.00
59789;BME280;47353;51.614;5.530;2022-11-25T00:33:48;100834.19;;;8.33;100.00
59789;BME280;47353;51.614;5.530;2022-11-25T00:36:26;100828.47;;;8.39;100.00
59789;BME280;47353;51.614;5.530;2022-11-25T00:38:57;100820.78;;;8.41;100.00
59789;BME280;47353;51.614;5.530;2022-11-25T00:41:24;100830.72;;;8.42;100.00
59789;BME280;47353;51.614;5.530;2022-11-25T00:44:10;100838.81;;;8.54;100.00
59789;BME280;47353;51.614;5.530;2022-11-25T00:46:54;100833.88;;;8.61;100.00
59789;BME280;47353;51.614;5.530;2022-11-25T00:49:20;100831.50;;;8.75;99.54
59789;BME280;47353;51.614;5.530;2022-11-25T00:51:45;100822.16;;;8.81;99.22
59789;BME280;47353;51.614;5.530;2022-11-25T00:54:11;100828.34;;;8.93;98.45
59789;BME280;47353;51.614;5.530;2022-11-25T00:56:36;100828.88;;;8.95;98.09
59789;BME280;47353;51.614;5.530;2022-11-25T00:59:02;100827.28;;;9.04;97.87
59789;BME280;47353;51.614;5.530;2022-11-25T01:01:27;100819.00;;;8.99;98.12
59789;BME280;47353;51.614;5.530;2022-11-25T01:03:53;100824.50;;;9.04;97.75
59789;BME280;47353;51.614;5.530;2022-11-25T01:06:19;100827.03;;;9.10;97.26
59789;BME280;47353;51.614;5.530;2022-11-25T01:08:45;100823.75;;;9.13;97.14
59789;BME280;47353;51.614;5.530;2022-11-25T01:11:13;100829.03;;;9.20;96.84
59789;BME280;47353;51.614;5.530;2022-11-25T01:13:39;100824.63;;;9.19;96.80
59789;BME280;47353;51.614;5.530;2022-11-25T01:16:06;100820.19;;;9.13;97.47
59789;BME280;47353;51.614;5.530;2022-11-25T01:18:32;100830.09;;;9.14;97.50
59789;BME280;47353;51.614;5.530;2022-11-25T01:21:11;100822.94;;;9.18;96.98
59789;BME280;47353;51.614;5.530;2022-11-25T01:23:37;100831.25;;;9.23;96.33
59789;BME280;47353;51.614;5.530;2022-11-25T01:26:04;100837.06;;;9.21;96.83
59789;BME280;47353;51.614;5.530;2022-11-25T01:28:31;100836.25;;;9.26;96.65
59789;BME280;47353;51.614;5.530;2022-11-25T01:33:30;100837.31;;;9.20;97.22
59789;BME280;47353;51.614;5.530;2022-11-25T01:36:03;100841.00;;;9.35;96.01
59789;BME280;47353;51.614;5.530;2022-11-25T01:38:30;100845.09;;;9.28;96.57
59789;BME280;47353;51.614;5.530;2022-11-25T01:40:56;100845.94;;;9.28;96.52
59789;BME280;47353;51.614;5.530;2022-11-25T01:43:21;100843.22;;;9.38;95.78
59789;BME280;47353;51.614;5.530;2022-11-25T01:45:47;100846.78;;;9.34;96.14
59789;BME280;47353;51.614;5.530;2022-11-25T01:48:21;100849.03;;;9.42;95.68
59789;BME280;47353;51.614;5.530;2022-11-25T01:50:49;100851.81;;;9.42;95.80
59789;BME280;47353;51.614;5.530;2022-11-25T01:53:16;100861.75;;;9.43;96.04
59789;BME280;47353;51.614;5.530;2022-11-25T01:55:55;100855.66;;;9.41;95.98
59789;BME280;47353;51.614;5.530;2022-11-25T01:58:29;100842.09;;;9.39;95.88
59789;BME280;47353;51.614;5.530;2022-11-25T02:00:57;100865.34;;;9.43;95.92
59789;BME280;47353;51.614;5.530;2022-11-25T02:03:44;100865.06;;;9.45;96.11
59789;BME280;47353;51.614;5.530;2022-11-25T02:06:17;100867.31;;;9.48;96.02
59789;BME280;47353;51.614;5.530;2022-11-25T02:08:58;100878.75;;;9.71;94.89
59789;BME280;47353;51.614;5.530;2022-11-25T02:11:27;100873.16;;;9.61;94.96
59789;BME280;47353;51.614;5.530;2022-11-25T02:13:55;100878.44;;;9.68;94.69
59789;BME280;47353;51.614;5.530;2022-11-25T02:16:21;100883.13;;;9.67;94.85
59789;BME280;47353;51.614;5.530;2022-11-25T02:18:48;100886.22;;;9.76;93.98
59789;BME280;47353;51.614;5.530;2022-11-25T02:21:17;100889.78;;;9.76;94.00
59789;BME280;47353;51.614;5.530;2022-11-25T02:23:53;100889.78;;;9.76;93.98
59789;BME280;47353;51.614;5.530;2022-11-25T02:26:21;100889.50;;;9.68;94.48
59789;BME280;47353;51.614;5.530;2022-11-25T02:28:46;100897.53;;;9.69;94.59
59789;BME280;47353;51.614;5.530;2022-11-25T02:31:18;100891.97;;;9.64;94.68
59789;BME280;47353;51.614;5.530;2022-11-25T02:33:44;100902.22;;;9.69;94.42
59789;BME280;47353;51.614;5.530;2022-11-25T02:36:12;100892.50;;;9.61;95.30
59789;BME280;47353;51.614;5.530;2022-11-25T02:38:52;100903.88;;;9.65;95.16
59789;BME280;47353;51.614;5.530;2022-11-25T02:41:39;100908.22;;;9.51;96.38
59789;BME280;47353;51.614;5.530;2022-11-25T02:44:08;100903.13;;;9.33;97.72
59789;BME280;47353;51.614;5.530;2022-11-25T02:46:34;100900.91;;;9.30;98.22
59789;BME280;47353;51.614;5.530;2022-11-25T02:49:00;100903.09;;;9.28;98.97
59789;BME280;47353;51.614;5.530;2022-11-25T02:51:28;100904.16;;;9.22;99.19
59789;BME280;47353;51.614;5.530;2022-11-25T02:53:54;100912.47;;;9.22;99.24
59789;BME280;47353;51.614;5.530;2022-11-25T02:56:24;100910.72;;;9.11;99.55
59789;BME280;47353;51.614;5.530;2022-11-25T02:58:50;100911.53;;;9.06;100.00
59789;BME280;47353;51.614;5.530;2022-11-25T03:01:16;100907.09;;;9.05;100.00
59789;BME280;47353;51.614;5.530;2022-11-25T03:03:41;100916.13;;;8.96;100.00
59789;BME280;47353;51.614;5.530;2022-11-25T03:06:07;100902.97;;;9.08;100.00
59789;BME280;47353;51.614;5.530;2022-11-25T03:08:34;100900.38;;;8.96;100.00
59789;BME280;47353;51.614;5.530;2022-11-25T03:10:59;100871.22;;;9.05;100.00
59789;BME280;47353;51.614;5.530;2022-11-25T03:13:24;100844.69;;;9.04;100.00
59789;BME280;47353;51.614;5.530;2022-11-25T03:15:50;100838.63;;;9.07;100.00
59789;BME280;47353;51.614;5.530;2022-11-25T03:18:15;100829.75;;;9.00;100.00
59789;BME280;47353;51.614;5.530;2022-11-25T03:20:41;100835.97;;;8.81;100.00
59789;BME280;47353;51.614;5.530;2022-11-25T03:23:06;100852.50;;;8.76;100.00
59789;BME280;47353;51.614;5.530;2022-11-25T03:25:34;100857.53;;;8.84;100.00
59789;BME280;47353;51.614;5.530;2022-11-25T03:27:59;100882.22;;;8.69;100.00
59789;BME280;47353;51.614;5.530;2022-11-25T03:30:26;100896.28;;;8.67;100.00
59789;BME280;47353;51.614;5.530;2022-11-25T03:32:52;100900.75;;;8.68;100.00
59789;BME280;47353;51.614;5.530;2022-11-25T03:35:17;100892.94;;;8.60;100.00
59789;BME280;47353;51.614;5.530;2022-11-25T03:37:43;100886.31;;;8.61;100.00
59789;BME280;47353;51.614;5.530;2022-11-25T03:40:11;100884.41;;;8.62;100.00
59789;BME280;47353;51.614;5.530;2022-11-25T03:42:37;100888.50;;;8.59;100.00
59789;BME280;47353;51.614;5.530;2022-11-25T03:45:02;100916.59;;;8.56;100.00
59789;BME280;47353;51.614;5.530;2022-11-25T03:47:28;100919.88;;;8.53;100.00
59789;BME280;47353;51.614;5.530;2022-11-25T03:49:53;100924.34;;;8.54;100.00
59789;BME280;47353;51.614;5.530;2022-11-25T03:52:19;100917.97;;;8.54;100.00
59789;BME280;47353;51.614;5.530;2022-11-25T03:54:44;100915.22;;;8.54;100.00
59789;BME280;47353;51.614;5.530;2022-11-25T03:57:10;100920.47;;;8.55;100.00
59789;BME280;47353;51.614;5.530;2022-11-25T03:59:35;100926.50;;;8.52;100.00
59789;BME280;47353;51.614;5.530;2022-11-25T04:02:00;100926.25;;;8.54;100.00
59789;BME280;47353;51.614;5.530;2022-11-25T04:04:26;100923.16;;;8.50;100.00
59789;BME280;47353;51.614;5.530;2022-11-25T04:06:51;100915.94;;;8.44;100.00
59789;BME280;47353;51.614;5.530;2022-11-25T04:09:17;100917.91;;;8.43;100.00
59789;BME280;47353;51.614;5.530;2022-11-25T04:11:42;100922.19;;;8.34;100.00
59789;BME280;47353;51.614;5.530;2022-11-25T04:14:26;100924.41;;;8.32;100.00
59789;BME280;47353;51.614;5.530;2022-11-25T04:16:52;100933.19;;;8.29;100.00
59789;BME280;47353;51.614;5.530;2022-11-25T04:19:17;100943.91;;;8.26;100.00
59789;BME280;47353;51.614;5.530;2022-11-25T04:21:43;100937.44;;;8.20;100.00
59789;BME280;47353;51.614;5.530;2022-11-25T04:24:08;100954.94;;;8.26;100.00
59789;BME280;47353;51.614;5.530;2022-11-25T04:26:34;100953.81;;;8.27;100.00
59789;BME280;47353;51.614;5.530;2022-11-25T04:28:59;100956.03;;;8.25;100.00
59789;BME280;47353;51.614;5.530;2022-11-25T04:31:25;100949.31;;;8.21;100.00
59789;BME280;47353;51.614;5.530;2022-11-25T04:33:50;100961.44;;;8.20;100.00
59789;BME280;47353;51.614;5.530;2022-11-25T04:36:16;100975.50;;;8.18;100.00
59789;BME280;47353;51.614;5.530;2022-11-25T04:38:42;100971.03;;;8.17;100.00
59789;BME280;47353;51.614;5.530;2022-11-25T04:41:07;100975.59;;;8.23;100.00
59789;BME280;47353;51.614;5.530;2022-11-25T04:43:33;100982.41;;;8.21;100.00
59789;BME280;47353;51.614;5.530;2022-11-25T04:45:58;100982.19;;;8.22;100.00
59789;BME280;47353;51.614;5.530;2022-11-25T04:48:24;100985.84;;;8.28;100.00
59789;BME280;47353;51.614;5.530;2022-11-25T04:50:49;100993.22;;;8.22;100.00
59789;BME280;47353;51.614;5.530;2022-11-25T04:53:15;100990.34;;;8.17;100.00
59789;BME280;47353;51.614;5.530;2022-11-25T04:55:40;100992.56;;;8.15;100.00
59789;BME280;47353;51.614;5.530;2022-11-25T04:58:06;100994.72;;;8.13;100.00
59789;BME280;47353;51.614;5.530;2022-11-25T05:00:31;100990.25;;;8.07;100.00
59789;BME280;47353;51.614;5.530;2022-11-25T05:02:57;100989.13;;;8.08;100.00
59789;BME280;47353;51.614;5.530;2022-11-25T05:05:22;100987.47;;;8.07;100.00
59789;BME280;47353;51.614;5.530;2022-11-25T05:07:48;101000.16;;;8.08;100.00
59789;BME280;47353;51.614;5.530;2022-11-25T05:10:13;101003.19;;;8.07;100.00
59789;BME280;47353;51.614;5.530;2022-11-25T05:12:39;101007.81;;;8.01;100.00
59789;BME280;47353;51.614;5.530;2022-11-25T05:15:05;101006.38;;;7.99;100.00
59789;BME280;47353;51.614;5.530;2022-11-25T05:17:31;101016.59;;;7.98;100.00
59789;BME280;47353;51.614;5.530;2022-11-25T05:19:56;101014.91;;;7.97;100.00
59789;BME280;47353;51.614;5.530;2022-11-25T05:22:25;101014.34;;;7.95;100.00
59789;BME280;47353;51.614;5.530;2022-11-25T05:24:52;101016.78;;;7.92;100.00
59789;BME280;47353;51.614;5.530;2022-11-25T05:27:18;101021.94;;;7.88;100.00
59789;BME280;47353;51.614;5.530;2022-11-25T05:29:44;101015.47;;;7.78;100.00
59789;BME280;47353;51.614;5.530;2022-11-25T05:32:10;101018.22;;;7.78;100.00
59789;BME280;47353;51.614;5.530;2022-11-25T05:34:36;101013.91;;;7.65;100.00
59789;BME280;47353;51.614;5.530;2022-11-25T05:37:02;101020.84;;;7.68;100.00
59789;BME280;47353;51.614;5.530;2022-11-25T05:39:27;101021.91;;;7.67;100.00
59789;BME280;47353;51.614;5.530;2022-11-25T05:41:53;101027.38;;;7.62;100.00
59789;BME280;47353;51.614;5.530;2022-11-25T05:44:18;101029.53;;;7.60;100.00
59789;BME280;47353;51.614;5.530;2022-11-25T05:46:44;101033.22;;;7.49;100.00
59789;BME280;47353;51.614;5.530;2022-11-25T05:49:13;101026.56;;;7.45;100.00
59789;BME280;47353;51.614;5.530;2022-11-25T05:51:39;101032.63;;;7.47;100.00
59789;BME280;47353;51.614;5.530;2022-11-25T05:54:04;101033.06;;;7.39;100.00
59789;BME280;47353;51.614;5.530;2022-11-25T05:56:29;101030.31;;;7.39;100.00
59789;BME280;47353;51.614;5.530;2022-11-25T05:58:58;101033.66;;;7.41;100.00
59789;BME280;47353;51.614;5.530;2022-11-25T06:01:24;101030.97;;;7.46;100.00
59789;BME280;47353;51.614;5.530;2022-11-25T06:03:49;101034.84;;;7.45;100.00
59789;BME280;47353;51.614;5.530;2022-11-25T06:06:16;101047.91;;;7.38;100.00
59789;BME280;47353;51.614;5.530;2022-11-25T06:08:41;101055.34;;;7.37;100.00
59789;BME280;47353;51.614;5.530;2022-11-25T06:11:09;101060.13;;;7.42;100.00
59789;BME280;47353;51.614;5.530;2022-11-25T06:13:36;101060.03;;;7.37;100.00
59789;BME280;47353;51.614;5.530;2022-11-25T06:16:07;101062.19;;;7.35;100.00
59789;BME280;47353;51.614;5.530;2022-11-25T06:18:32;101056.69;;;7.35;100.00
59789;BME280;47353;51.614;5.530;2022-11-25T06:20:58;101053.34;;;7.33;100.00
59789;BME280;47353;51.614;5.530;2022-11-25T06:23:25;101050.59;;;7.33;100.00
59789;BME280;47353;51.614;5.530;2022-11-25T06:25:51;101068.44;;;7.30;100.00
59789;BME280;47353;51.614;5.530;2022-11-25T06:28:16;101062.94;;;7.30;100.00
59789;BME280;47353;51.614;5.530;2022-11-25T06:30:42;101066.28;;;7.32;100.00
59789;BME280;47353;51.614;5.530;2022-11-25T06:33:07;101072.81;;;7.26;100.00
59789;BME280;47353;51.614;5.530;2022-11-25T06:35:32;101082.97;;;7.26;100.00
59789;BME280;47353;51.614;5.530;2022-11-25T06:37:58;101086.47;;;7.21;100.00
59789;BME280;47353;51.614;5.530;2022-11-25T06:40:24;101094.97;;;7.20;100.00
59789;BME280;47353;51.614;5.530;2022-11-25T06:42:49;101093.06;;;7.20;100.00
59789;BME280;47353;51.614;5.530;2022-11-25T06:45:15;101092.88;;;7.10;100.00
59789;BME280;47353;51.614;5.530;2022-11-25T06:47:40;101098.97;;;7.12;100.00
59789;BME280;47353;51.614;5.530;2022-11-25T06:50:06;101096.47;;;7.11;100.00
59789;BME280;47353;51.614;5.530;2022-11-25T06:52:31;101097.88;;;7.13;100.00
59789;BME280;47353;51.614;5.530;2022-11-25T06:54:57;101101.78;;;7.01;100.00
59789;BME280;47353;51.614;5.530;2022-11-25T06:57:22;101105.88;;;6.98;100.00
59789;BME280;47353;51.614;5.530;2022-11-25T06:59:48;101102.75;;;6.95;100.00
59789;BME280;47353;51.614;5.530;2022-11-25T07:02:13;101110.19;;;6.94;100.00
59789;BME280;47353;51.614;5.530;2022-11-25T07:04:39;101107.34;;;6.89;100.00
59789;BME280;47353;51.614;5.530;2022-11-25T07:07:05;101119.16;;;6.90;100.00
59789;BME280;47353;51.614;5.530;2022-11-25T07:09:31;101120.28;;;6.77;100.00
59789;BME280;47353;51.614;5.530;2022-11-25T07:11:56;101128.34;;;6.78;100.00
59789;BME280;47353;51.614;5.530;2022-11-25T07:14:21;101128.78;;;6.75;100.00
59789;BME280;47353;51.614;5.530;2022-11-25T07:16:47;101134.53;;;6.74;100.00
59789;BME280;47353;51.614;5.530;2022-11-25T07:19:15;101137.28;;;6.74;100.00
59789;BME280;47353;51.614;5.530;2022-11-25T07:21:42;101136.47;;;6.73;100.00
59789;BME280;47353;51.614;5.530;2022-11-25T07:24:11;101145.72;;;6.67;100.00
59789;BME280;47353;51.614;5.530;2022-11-25T07:26:38;101148.47;;;6.67;100.00
59789;BME280;47353;51.614;5.530;2022-11-25T07:29:10;101148.47;;;6.67;100.00
59789;BME280;47353;51.614;5.530;2022-11-25T07:31:39;101152.03;;;6.68;100.00
59789;BME280;47353;51.614;5.530;2022-11-25T07:34:13;101160.38;;;6.73;100.00
59789;BME280;47353;51.614;5.530;2022-11-25T07:36:40;101168.88;;;6.71;100.00
59789;BME280;47353;51.614;5.530;2022-11-25T07:39:10;101158.47;;;6.73;100.00
59789;BME280;47353;51.614;5.530;2022-11-25T07:41:36;101178.56;;;6.74;100.00
59789;BME280;47353;51.614;5.530;2022-11-25T07:44:04;101186.09;;;6.78;100.00
59789;BME280;47353;51.614;5.530;2022-11-25T07:46:37;101188.84;;;6.78;100.00
59789;BME280;47353;51.614;5.530;2022-11-25T07:49:06;101190.28;;;6.81;100.00
59789;BME280;47353;51.614;5.530;2022-11-25T07:51:33;101199.91;;;6.95;100.00
59789;BME280;47353;51.614;5.530;2022-11-25T07:54:00;101204.59;;;6.95;100.00
59789;BME280;47353;51.614;5.530;2022-11-25T07:56:27;101198.34;;;6.99;100.00
59789;BME280;47353;51.614;5.530;2022-11-25T07:58:54;101208.63;;;7.04;100.00
59789;BME280;47353;51.614;5.530;2022-11-25T08:01:20;101208.63;;;7.04;100.00
59789;BME280;47353;51.614;5.530;2022-11-25T08:03:46;101196.69;;;6.98;100.00
59789;BME280;47353;51.614;5.530;2022-11-25T08:06:17;101220.34;;;7.11;100.00
59789;BME280;47353;51.614;5.530;2022-11-25T08:08:43;101220.56;;;7.09;100.00
59789;BME280;47353;51.614;5.530;2022-11-25T08:11:12;101224.63;;;7.07;100.00
59789;BME280;47353;51.614;5.530;2022-11-25T08:13:38;101229.50;;;7.16;100.00
59789;BME280;47353;51.614;5.530;2022-11-25T08:16:04;101236.69;;;7.17;100.00
59789;BME280;47353;51.614;5.530;2022-11-25T08:18:30;101239.91;;;7.26;100.00
59789;BME280;47353;51.614;5.530;2022-11-25T08:20:59;101232.16;;;7.39;100.00
59789;BME280;47353;51.614;5.530;2022-11-25T08:23:25;101236.81;;;7.39;100.00
59789;BME280;47353;51.614;5.530;2022-11-25T08:25:51;101248.78;;;7.44;100.00
59789;BME280;47353;51.614;5.530;2022-11-25T08:28:17;101250.06;;;7.53;100.00
59789;BME280;47353;51.614;5.530;2022-11-25T08:30:42;101242.72;;;7.59;100.00
59789;BME280;47353;51.614;5.530;2022-11-25T08:33:08;101250.53;;;7.78;100.00
59789;BME280;47353;51.614;5.530;2022-11-25T08:35:33;101243.28;;;8.05;100.00
59789;BME280;47353;51.614;5.530;2022-11-25T08:38:06;101248.56;;;8.40;100.00
59789;BME280;47353;51.614;5.530;2022-11-25T08:40:33;101248.03;;;8.81;100.00
59789;BME280;47353;51.614;5.530;2022-11-25T08:42:59;101246.75;;;9.10;100.00
59789;BME280;47353;51.614;5.530;2022-11-25T08:45:25;101243.78;;;9.38;100.00
59789;BME280;47353;51.614;5.530;2022-11-25T08:47:50;101250.72;;;9.67;99.56
59789;BME280;47353;51.614;5.530;2022-11-25T08:50:15;101248.88;;;9.73;96.53
59789;BME280;47353;51.614;5.530;2022-11-25T08:52:41;101250.31;;;10.07;95.83
59789;BME280;47353;51.614;5.530;2022-11-25T08:55:06;101251.38;;;10.38;93.49
59789;BME280;47353;51.614;5.530;2022-11-25T08:57:33;101257.38;;;10.66;91.82
59789;BME280;47353;51.614;5.530;2022-11-25T08:59:58;101260.81;;;10.83;89.45
59789;BME280;47353;51.614;5.530;2022-11-25T09:02:23;101263.34;;;10.90;87.93
59789;BME280;47353;51.614;5.530;2022-11-25T09:04:49;101277.59;;;11.18;88.97
59789;BME280;47353;51.614;5.530;2022-11-25T09:07:14;101279.66;;;11.38;87.33
59789;BME280;47353;51.614;5.530;2022-11-25T09:09:40;101279.56;;;11.18;86.08
59789;BME280;47353;51.614;5.530;2022-11-25T09:12:05;101280.53;;;11.53;86.72
59789;BME280;47353;51.614;5.530;2022-11-25T09:14:31;101288.09;;;11.73;83.19
59789;BME280;47353;51.614;5.530;2022-11-25T09:16:56;101293.16;;;12.01;83.09
59789;BME280;47353;51.614;5.530;2022-11-25T09:19:22;101288.16;;;12.08;81.46
59789;BME280;47353;51.614;5.530;2022-11-25T09:21:47;101298.09;;;11.89;80.85
59789;BME280;47353;51.614;5.530;2022-11-25T09:24:13;101303.13;;;12.07;81.06
59789;BME280;47353;51.614;5.530;2022-11-25T09:26:38;101304.28;;;12.21;80.48
59789;BME280;47353;51.614;5.530;2022-11-25T09:29:05;101298.13;;;12.09;79.61
59789;BME280;47353;51.614;5.530;2022-11-25T09:31:32;101307.00;;;11.96;79.33
59789;BME280;47353;51.614;5.530;2022-11-25T09:33:57;101323.31;;;11.72;80.87
59789;BME280;47353;51.614;5.530;2022-11-25T09:36:23;101321.66;;;11.77;81.45
59789;BME280;47353;51.614;5.530;2022-11-25T09:38:49;101329.25;;;12.51;78.55
59789;BME280;47353;51.614;5.530;2022-11-25T09:47:33;101341.53;;;14.13;71.41
59789;BME280;47353;51.614;5.530;2022-11-25T09:52:56;101346.63;;;14.78;67.63
59789;BME280;47353;51.614;5.530;2022-11-25T09:55:30;101349.56;;;15.67;65.28
59789;BME280;47353;51.614;5.530;2022-11-25T09:58:23;101356.81;;;16.66;63.40
59789;BME280;47353;51.614;5.530;2022-11-25T10:00:51;101350.44;;;17.38;58.80
59789;BME280;47353;51.614;5.530;2022-11-25T10:06:19;101372.69;;;16.84;58.77
59789;BME280;47353;51.614;5.530;2022-11-25T10:08:56;101369.31;;;16.87;59.79
59789;BME280;47353;51.614;5.530;2022-11-25T10:11:41;101372.72;;;17.43;57.70
59789;BME280;47353;51.614;5.530;2022-11-25T10:14:20;101385.44;;;17.95;55.56
59789;BME280;47353;51.614;5.530;2022-11-25T10:17:04;101387.09;;;18.81;55.62
59789;BME280;47353;51.614;5.530;2022-11-25T10:20:06;101387.09;;;19.03;51.14
59789;BME280;47353;51.614;5.530;2022-11-25T10:22:27;101397.00;;;19.31;50.60
59789;BME280;47353;51.614;5.530;2022-11-25T10:25:01;101409.38;;;19.08;51.81
59789;BME280;47353;51.614;5.530;2022-11-25T10:30:33;101404.88;;;18.98;49.13
59789;BME280;47353;51.614;5.530;2022-11-25T10:33:18;101409.91;;;18.88;50.73
59789;BME280;47353;51.614;5.530;2022-11-25T10:36:14;101413.81;;;18.78;51.88
59789;BME280;47353;51.614;5.530;2022-11-25T10:38:48;101424.13;;;19.13;49.22
59789;BME280;47353;51.614;5.530;2022-11-25T10:41:18;101430.53;;;18.70;49.37
59789;BME280;47353;51.614;5.530;2022-11-25T10:43:46;101427.53;;;18.03;49.68
59789;BME280;47353;51.614;5.530;2022-11-25T10:46:32;101430.13;;;18.27;51.40
59789;BME280;47353;51.614;5.530;2022-11-25T10:49:20;101439.28;;;18.05;51.95
59789;BME280;47353;51.614;5.530;2022-11-25T10:51:52;101437.28;;;18.06;51.33
59789;BME280;47353;51.614;5.530;2022-11-25T10:54:24;101427.84;;;17.88;51.68
59789;BME280;47353;51.614;5.530;2022-11-25T10:57:03;101438.28;;;18.37;50.45
59789;BME280;47353;51.614;5.530;2022-11-25T10:59:41;101434.13;;;18.48;49.79
59789;BME280;47353;51.614;5.530;2022-11-25T11:02:22;101424.91;;;19.27;47.99
59789;BME280;47353;51.614;5.530;2022-11-25T11:07:34;101449.06;;;18.71;47.93
59789;BME280;47353;51.614;5.530;2022-11-25T11:10:22;101450.44;;;18.60;49.49
59789;BME280;47353;51.614;5.530;2022-11-25T11:13:00;101449.63;;;18.81;49.05
59789;BME280;47353;51.614;5.530;2022-11-25T11:20:49;101462.06;;;18.89;46.98
59789;BME280;47353;51.614;5.530;2022-11-25T11:23:15;101464.41;;;18.73;46.40
59789;BME280;47353;51.614;5.530;2022-11-25T11:26:02;101460.06;;;18.67;48.53
59789;BME280;47353;51.614;5.530;2022-11-25T11:28:30;101471.72;;;18.61;46.78
59789;BME280;47353;51.614;5.530;2022-11-25T11:31:17;101487.69;;;18.74;48.28
59789;BME280;47353;51.614;5.530;2022-11-25T11:52:56;101505.97;;;18.58;47.23
59789;BME280;47353;51.614;5.530;2022-11-25T11:55:34;101505.00;;;18.76;46.91
59789;BME280;47353;51.614;5.530;2022-11-25T11:58:12;101507.81;;;18.76;47.58
59789;BME280;47353;51.614;5.530;2022-11-25T12:00:48;101500.91;;;19.17;45.61
59789;BME280;47353;51.614;5.530;2022-11-25T12:03:20;101508.50;;;19.30;45.25
59789;BME280;47353;51.614;5.530;2022-11-25T12:05:47;101511.69;;;19.24;46.11
59789;BME280;47353;51.614;5.530;2022-11-25T12:11:24;101512.63;;;18.35;47.82
59789;BME280;47353;51.614;5.530;2022-11-25T12:14:03;101520.00;;;18.31;47.39
59789;BME280;47353;51.614;5.530;2022-11-25T12:16:39;101521.00;;;17.80;48.88
59789;BME280;47353;51.614;5.530;2022-11-25T12:19:25;101521.13;;;18.02;49.45
59789;BME280;47353;51.614;5.530;2022-11-25T12:22:09;101518.19;;;17.80;48.98
59789;BME280;47353;51.614;5.530;2022-11-25T12:24:52;101527.47;;;18.21;48.22
59789;BME280;47353;51.614;5.530;2022-11-25T12:27:37;101534.44;;;17.65;48.92
59789;BME280;47353;51.614;5.530;2022-11-25T12:30:11;101536.00;;;17.20;50.05
59789;BME280;47353;51.614;5.530;2022-11-25T12:40:15;101536.78;;;17.26;50.24
59789;BME280;47353;51.614;5.530;2022-11-25T12:42:44;101544.59;;;17.10;50.92
59789;BME280;47353;51.614;5.530;2022-11-25T12:45:24;101550.66;;;17.49;50.39
59789;BME280;47353;51.614;5.530;2022-11-25T12:47:50;101557.78;;;17.23;50.23
59789;BME280;47353;51.614;5.530;2022-11-25T12:50:26;101558.78;;;16.95;51.60
59789;BME280;47353;51.614;5.530;2022-11-25T12:53:05;101557.97;;;17.13;51.01
59789;BME280;47353;51.614;5.530;2022-11-25T12:55:38;101571.41;;;17.30;51.52
59789;BME280;47353;51.614;5.530;2022-11-25T13:17:29;101597.44;;;13.79;63.67
59789;BME280;47353;51.614;5.530;2022-11-25T13:23:01;101603.56;;;13.81;63.82
59789;BME280;47353;51.614;5.530;2022-11-25T13:25:34;101601.09;;;13.65;65.29
59789;BME280;47353;51.614;5.530;2022-11-25T13:28:09;101607.91;;;14.47;63.53
59789;BME280;47353;51.614;5.530;2022-11-25T13:30:51;101621.25;;;14.55;62.26
59789;BME280;47353;51.614;5.530;2022-11-25T13:41:00;101619.97;;;13.32;66.59
59789;BME280;47353;51.614;5.530;2022-11-25T13:43:26;101630.78;;;13.14;68.09
59789;BME280;47353;51.614;5.530;2022-11-25T13:45:53;101621.34;;;13.15;68.17
59789;BME280;47353;51.614;5.530;2022-11-25T13:48:29;101629.91;;;13.03;68.66
59789;BME280;47353;51.614;5.530;2022-11-25T13:51:21;101628.03;;;13.29;68.63
59789;BME280;47353;51.614;5.530;2022-11-25T13:53:54;101631.09;;;13.37;68.32
59789;BME280;47353;51.614;5.530;2022-11-25T13:56:29;101631.13;;;13.63;67.53
59789;BME280;47353;51.614;5.530;2022-11-25T14:04:04;101634.44;;;13.50;67.29
59789;BME280;47353;51.614;5.530;2022-11-25T14:06:53;101636.88;;;13.06;68.96
59789;BME280;47353;51.614;5.530;2022-11-25T14:12:47;101645.50;;;12.48;72.12
59789;BME280;47353;51.614;5.530;2022-11-25T14:18:20;101662.00;;;12.64;73.41
59789;BME280;47353;51.614;5.530;2022-11-25T14:20:47;101668.38;;;12.70;72.28
59789;BME280;47353;51.614;5.530;2022-11-25T14:25:53;101663.72;;;12.80;72.87
59789;BME280;47353;51.614;5.530;2022-11-25T14:28:44;101675.00;;;13.20;70.90
59789;BME280;47353;51.614;5.530;2022-11-25T14:31:18;101682.19;;;13.01;72.02
59789;BME280;47353;51.614;5.530;2022-11-25T14:33:53;101677.66;;;12.90;72.64
59789;BME280;47353;51.614;5.530;2022-11-25T14:36:26;101685.69;;;12.87;73.00
59789;BME280;47353;51.614;5.530;2022-11-25T14:38:56;101686.97;;;13.31;72.61
59789;BME280;47353;51.614;5.530;2022-11-25T14:44:21;101690.09;;;13.70;69.97
59789;BME280;47353;51.614;5.530;2022-11-25T14:46:53;101701.19;;;13.39;70.76